createdAt,value
2018-09-15T00:00:15.297Z,13.56
2018-09-15T00:01:14.579Z,13.56
2018-09-15T00:02:35.959Z,13.56
2018-09-15T00:03:36.384Z,13.56
2018-09-15T00:04:36.878Z,13.56
2018-09-15T00:05:35.979Z,13.57
2018-09-15T00:06:37.977Z,13.57
2018-09-15T00:07:36.239Z,13.59
2018-09-15T00:08:57.720Z,13.60
2018-09-15T00:09:57.841Z,13.62
2018-09-15T00:10:58.248Z,13.63
2018-09-15T00:11:57.723Z,13.63
2018-09-15T00:12:58.052Z,13.63
2018-09-15T00:13:58.474Z,13.67
2018-09-15T00:15:18.932Z,13.65
2018-09-15T00:16:19.394Z,13.65
2018-09-15T00:17:41.412Z,13.63
2018-09-15T00:18:41.633Z,13.65
2018-09-15T00:19:42.476Z,13.62
2018-09-15T00:20:41.785Z,13.57
2018-09-15T00:21:41.189Z,13.57
2018-09-15T00:22:41.639Z,13.53
2018-09-15T00:23:41.007Z,13.50
2018-09-15T00:24:41.407Z,13.46
2018-09-15T00:25:41.554Z,13.44
2018-09-15T00:26:41.791Z,13.39
2018-09-15T00:28:22.999Z,13.33
2018-09-15T00:29:23.268Z,13.31
2018-09-15T00:30:23.666Z,13.30
2018-09-15T00:31:23.112Z,13.25
2018-09-15T00:32:23.487Z,13.27
2018-09-15T00:33:23.945Z,13.25
2018-09-15T00:34:23.204Z,13.27
2018-09-15T00:35:23.647Z,13.30
2018-09-15T00:36:44.143Z,13.33
2018-09-15T00:37:44.487Z,13.37
2018-09-15T00:38:44.865Z,13.37
2018-09-15T00:39:44.319Z,13.41
2018-09-15T00:40:44.674Z,13.44
2018-09-15T00:41:45.080Z,13.42
2018-09-15T00:43:25.949Z,13.46
2018-09-15T00:44:26.997Z,13.47
2018-09-15T00:45:26.354Z,13.49
2018-09-15T00:46:26.728Z,13.50
2018-09-15T00:47:27.169Z,13.53
2018-09-15T00:48:38.671Z,13.53
2018-09-15T00:49:27.335Z,13.54
2018-09-15T00:50:26.902Z,13.53
2018-09-15T00:51:27.236Z,13.53
2018-09-15T00:52:26.657Z,13.56
2018-09-15T00:53:26.922Z,13.56
2018-09-15T00:54:26.339Z,13.54
2018-09-15T00:55:26.347Z,13.54
2018-09-15T00:56:26.703Z,13.56
2018-09-15T00:57:26.904Z,13.53
2018-09-15T00:58:26.119Z,13.52
2018-09-15T00:59:26.170Z,13.50
2018-09-15T01:00:26.201Z,13.47
2018-09-15T01:01:26.338Z,13.47
2018-09-15T01:02:26.639Z,13.47
2018-09-15T01:03:26.763Z,13.46
2018-09-15T01:04:48.608Z,13.44
2018-09-15T01:05:49.664Z,13.42
2018-09-15T01:07:30.806Z,13.39
2018-09-15T01:08:31.029Z,13.35
2018-09-15T01:09:31.537Z,13.27
2018-09-15T01:10:30.991Z,13.25
2018-09-15T01:11:31.345Z,13.19
2018-09-15T01:12:31.667Z,13.18
2018-09-15T01:13:30.937Z,13.15
2018-09-15T01:14:31.406Z,13.11
2018-09-15T01:15:52.499Z,13.05
2018-09-15T01:16:52.592Z,13.01
2018-09-15T01:17:52.753Z,12.98
2018-09-15T01:18:52.786Z,12.97
2018-09-15T01:20:13.786Z,12.91
2018-09-15T01:21:14.004Z,12.87
2018-09-15T01:22:15.326Z,12.87
2018-09-15T01:23:14.354Z,12.86
2018-09-15T01:24:14.531Z,12.85
2018-09-15T01:25:14.702Z,12.85
2018-09-15T01:26:13.655Z,12.80
2018-09-15T01:27:13.799Z,12.79
2018-09-15T01:28:13.831Z,12.78
2018-09-15T01:29:14.074Z,12.75
2018-09-15T01:30:35.065Z,12.73
2018-09-15T01:31:35.090Z,12.68
2018-09-15T01:32:55.948Z,12.67
2018-09-15T01:33:56.219Z,12.64
2018-09-15T01:34:56.335Z,12.61
2018-09-15T01:35:56.519Z,12.58
2018-09-15T01:36:56.525Z,12.55
2018-09-15T01:37:56.935Z,12.53
2018-09-15T01:38:56.849Z,12.50
2018-09-15T01:39:55.963Z,12.47
2018-09-15T01:40:56.054Z,12.43
2018-09-15T01:41:56.150Z,12.45
2018-09-15T01:42:56.228Z,12.42
2018-09-15T01:43:56.314Z,12.42
2018-09-15T01:44:56.549Z,12.40
2018-09-15T01:45:56.622Z,12.40
2018-09-15T01:46:56.811Z,12.39
2018-09-15T01:47:56.858Z,12.39
2018-09-15T01:48:57.036Z,12.39
2018-09-15T01:49:57.489Z,12.39
2018-09-15T01:50:56.998Z,12.39
2018-09-15T01:51:56.401Z,12.42
2018-09-15T01:52:56.824Z,12.43
2018-09-15T01:53:57.022Z,12.45
2018-09-15T01:54:56.164Z,12.46
2018-09-15T01:55:56.305Z,12.45
2018-09-15T01:56:58.003Z,12.46
2018-09-15T01:57:56.373Z,12.47
2018-09-15T01:58:56.488Z,12.49
2018-09-15T01:59:56.674Z,12.49
2018-09-15T02:00:56.974Z,12.47
2018-09-15T02:01:55.948Z,12.50
2018-09-15T02:03:17.988Z,12.50
2018-09-15T02:04:18.331Z,12.54
2018-09-15T02:05:18.392Z,12.55
2018-09-15T02:06:18.438Z,12.57
2018-09-15T02:07:18.772Z,12.57
2018-09-15T02:08:41.368Z,12.60
2018-09-15T02:09:41.701Z,12.60
2018-09-15T02:10:42.150Z,12.60
2018-09-15T02:11:41.387Z,12.60
2018-09-15T02:12:41.521Z,12.58
2018-09-15T02:13:41.954Z,12.60
2018-09-15T02:14:42.059Z,12.61
2018-09-15T02:15:42.049Z,12.61
2018-09-15T02:16:41.291Z,12.60
2018-09-15T02:17:41.519Z,12.61
2018-09-15T02:18:41.677Z,12.60
2018-09-15T02:19:41.623Z,12.60
2018-09-15T02:20:41.856Z,12.58
2018-09-15T02:21:41.856Z,12.58
2018-09-15T02:23:02.757Z,12.55
2018-09-15T02:24:02.778Z,12.55
2018-09-15T02:25:02.919Z,12.53
2018-09-15T02:26:03.283Z,12.53
2018-09-15T02:27:03.334Z,12.50
2018-09-15T02:28:03.200Z,12.49
2018-09-15T02:29:03.408Z,12.46
2018-09-15T02:30:03.462Z,12.43
2018-09-15T02:31:03.447Z,12.40
2018-09-15T02:32:03.702Z,12.36
2018-09-15T02:33:02.774Z,12.31
2018-09-15T02:34:03.651Z,12.29
2018-09-15T02:35:03.890Z,12.27
2018-09-15T02:36:03.145Z,12.22
2018-09-15T02:37:03.476Z,12.20
2018-09-15T02:38:03.489Z,12.15
2018-09-15T02:39:03.639Z,12.13
2018-09-15T02:40:03.658Z,12.07
2018-09-15T02:41:02.696Z,12.04
2018-09-15T02:42:03.011Z,12.02
2018-09-15T02:43:02.985Z,12.00
2018-09-15T02:44:03.261Z,11.99
2018-09-15T02:45:03.406Z,11.97
2018-09-15T02:46:03.608Z,11.94
2018-09-15T02:47:02.949Z,11.90
2018-09-15T02:48:03.422Z,11.88
2018-09-15T02:49:03.524Z,11.86
2018-09-15T02:50:03.807Z,11.83
2018-09-15T02:51:02.898Z,11.81
2018-09-15T02:52:03.352Z,11.78
2018-09-15T02:53:03.367Z,11.73
2018-09-15T02:54:03.578Z,11.69
2018-09-15T02:55:03.710Z,11.68
2018-09-15T02:56:02.900Z,11.68
2018-09-15T02:57:03.050Z,11.65
2018-09-15T02:58:04.029Z,11.66
2018-09-15T02:59:23.846Z,11.68
2018-09-15T03:00:24.775Z,11.68
2018-09-15T03:01:23.977Z,11.69
2018-09-15T03:02:24.021Z,11.72
2018-09-15T03:03:24.195Z,11.78
2018-09-15T03:04:24.444Z,11.81
2018-09-15T03:05:24.581Z,11.83
2018-09-15T03:06:24.621Z,11.87
2018-09-15T03:07:24.640Z,11.88
2018-09-15T03:08:24.537Z,11.90
2018-09-15T03:09:24.782Z,11.94
2018-09-15T03:10:24.878Z,11.95
2018-09-15T03:11:24.116Z,11.97
2018-09-15T03:12:24.260Z,11.97
2018-09-15T03:13:24.292Z,11.99
2018-09-15T03:14:24.660Z,12.02
2018-09-15T03:15:25.041Z,12.03
2018-09-15T03:16:24.223Z,12.03
2018-09-15T03:17:24.230Z,12.04
2018-09-15T03:18:24.342Z,12.06
2018-09-15T03:19:24.393Z,12.07
2018-09-15T03:20:45.256Z,12.06
2018-09-15T03:21:45.374Z,12.06
2018-09-15T03:22:45.552Z,12.07
2018-09-15T03:23:45.810Z,12.06
2018-09-15T03:24:46.962Z,12.07
2018-09-15T03:25:46.189Z,12.06
2018-09-15T03:26:46.334Z,12.03
2018-09-15T03:28:06.905Z,11.99
2018-09-15T03:29:07.893Z,11.95
2018-09-15T03:30:07.994Z,11.91
2018-09-15T03:31:07.003Z,11.88
2018-09-15T03:32:07.159Z,11.87
2018-09-15T03:33:07.405Z,11.84
2018-09-15T03:34:07.626Z,11.80
2018-09-15T03:35:07.816Z,11.80
2018-09-15T03:36:07.826Z,11.75
2018-09-15T03:37:07.929Z,11.77
2018-09-15T03:38:07.129Z,11.70
2018-09-15T03:39:29.245Z,11.69
2018-09-15T03:40:28.633Z,11.66
2018-09-15T03:41:29.405Z,11.63
2018-09-15T03:42:49.510Z,11.60
2018-09-15T03:44:10.242Z,11.57
2018-09-15T03:45:31.365Z,11.55
2018-09-15T03:46:31.463Z,11.54
2018-09-15T03:47:31.587Z,11.51
2018-09-15T03:48:31.671Z,11.50
2018-09-15T03:49:32.016Z,11.51
2018-09-15T03:50:32.508Z,11.54
2018-09-15T03:51:31.725Z,11.52
2018-09-15T03:52:31.892Z,11.51
2018-09-15T03:53:52.777Z,11.47
2018-09-15T03:54:52.875Z,11.48
2018-09-15T03:55:53.083Z,11.48
2018-09-15T03:57:14.091Z,11.48
2018-09-15T03:58:37.079Z,11.47
2018-09-15T03:59:37.305Z,11.48
2018-09-15T04:00:37.492Z,11.51
2018-09-15T04:03:01.373Z,11.59
2018-09-15T04:04:22.426Z,11.63
2018-09-15T04:05:23.558Z,11.65
2018-09-15T04:06:26.991Z,11.68
2018-09-15T04:07:23.214Z,11.69
2018-09-15T04:08:23.282Z,11.73
2018-09-15T04:09:23.426Z,11.75
2018-09-15T04:10:23.600Z,11.80
2018-09-15T04:11:23.395Z,11.83
2018-09-15T04:12:22.425Z,11.84
2018-09-15T04:13:44.403Z,11.86
2018-09-15T04:14:44.529Z,11.87
2018-09-15T04:15:44.724Z,11.88
2018-09-15T04:16:44.684Z,11.94
2018-09-15T04:17:44.747Z,11.95
2018-09-15T04:18:47.692Z,11.97
2018-09-15T04:19:46.008Z,11.97
2018-09-15T04:20:45.574Z,11.97
2018-09-15T04:21:45.217Z,12.02
2018-09-15T04:22:45.275Z,12.03
2018-09-15T04:23:44.451Z,12.06
2018-09-15T04:24:44.472Z,12.07
2018-09-15T04:25:45.974Z,12.07
2018-09-15T04:27:05.764Z,12.07
2018-09-15T04:28:06.437Z,12.07
2018-09-15T04:29:05.763Z,12.04
2018-09-15T04:30:05.795Z,12.04
2018-09-15T04:31:07.279Z,12.06
2018-09-15T04:32:06.562Z,12.04
2018-09-15T04:33:26.663Z,12.03
2018-09-15T04:34:27.416Z,12.03
2018-09-15T04:35:29.037Z,11.99
2018-09-15T04:36:27.953Z,11.99
2018-09-15T04:37:27.042Z,11.95
2018-09-15T04:38:27.167Z,11.94
2018-09-15T04:39:27.418Z,11.90
2018-09-15T04:40:27.833Z,11.88
2018-09-15T04:41:27.099Z,11.87
2018-09-15T04:42:27.723Z,11.86
2018-09-15T04:43:29.946Z,11.86
2018-09-15T04:44:26.999Z,11.86
2018-09-15T04:45:27.020Z,11.83
2018-09-15T04:46:27.034Z,11.83
2018-09-15T04:47:27.906Z,11.81
2018-09-15T04:48:27.085Z,11.83
2018-09-15T04:49:49.901Z,11.86
2018-09-15T04:50:51.762Z,11.88
2018-09-15T04:52:11.950Z,11.95
2018-09-15T04:53:12.147Z,11.91
2018-09-15T04:54:32.536Z,11.90
2018-09-15T04:55:32.773Z,11.90
2018-09-15T04:56:33.064Z,11.88
2018-09-15T04:57:33.192Z,11.90
2018-09-15T04:58:32.700Z,11.90
2018-09-15T04:59:32.971Z,11.91
2018-09-15T05:00:33.138Z,11.91
2018-09-15T05:01:33.256Z,11.94
2018-09-15T05:02:32.413Z,11.97
2018-09-15T05:03:32.744Z,12.02
2018-09-15T05:04:32.945Z,12.02
2018-09-15T05:05:33.337Z,12.03
2018-09-15T05:06:32.602Z,12.03
2018-09-15T05:07:33.004Z,12.06
2018-09-15T05:08:33.364Z,12.06
2018-09-15T05:09:32.915Z,12.07
2018-09-15T05:10:33.286Z,12.10
2018-09-15T05:11:32.609Z,12.12
2018-09-15T05:12:32.984Z,12.17
2018-09-15T05:13:34.122Z,12.21
2018-09-15T05:14:33.346Z,12.24
2018-09-15T05:15:32.525Z,12.27
2018-09-15T05:16:33.704Z,12.28
2018-09-15T05:17:54.021Z,12.31
2018-09-15T05:18:54.422Z,12.36
2018-09-15T05:19:54.858Z,12.37
2018-09-15T05:20:53.902Z,12.42
2018-09-15T05:21:54.230Z,12.45
2018-09-15T05:22:55.481Z,12.46
2018-09-15T05:23:54.981Z,12.47
2018-09-15T05:24:54.009Z,12.50
2018-09-15T05:25:56.194Z,12.50
2018-09-15T05:26:54.238Z,12.54
2018-09-15T05:27:54.166Z,12.55
2018-09-15T05:29:15.313Z,12.58
2018-09-15T05:30:15.654Z,12.60
2018-09-15T05:31:15.868Z,12.61
2018-09-15T05:32:15.834Z,12.65
2018-09-15T05:33:15.222Z,12.67
2018-09-15T05:34:15.928Z,12.67
2018-09-15T05:35:36.326Z,12.70
2018-09-15T05:36:36.597Z,12.72
2018-09-15T05:37:36.864Z,12.75
2018-09-15T05:38:36.861Z,12.76
2018-09-15T05:39:37.155Z,12.78
2018-09-15T05:40:36.274Z,12.79
2018-09-15T05:41:36.620Z,12.82
2018-09-15T05:42:36.915Z,12.82
2018-09-15T05:43:36.974Z,12.83
2018-09-15T05:44:36.845Z,12.82
2018-09-15T05:45:37.127Z,12.83
2018-09-15T05:46:37.632Z,12.83
2018-09-15T05:47:36.803Z,12.83
2018-09-15T05:48:36.939Z,12.85
2018-09-15T05:49:36.392Z,12.85
2018-09-15T05:50:36.813Z,12.86
2018-09-15T05:51:57.961Z,12.87
2018-09-15T05:52:58.099Z,12.90
2018-09-15T05:53:58.562Z,12.91
2018-09-15T05:54:58.840Z,12.91
2018-09-15T05:55:58.281Z,12.95
2018-09-15T05:56:58.561Z,12.97
2018-09-15T05:58:19.628Z,12.97
2018-09-15T05:59:19.946Z,12.98
2018-09-15T06:00:20.385Z,13.03
2018-09-15T06:01:19.793Z,13.05
2018-09-15T06:02:20.116Z,13.08
2018-09-15T06:03:20.328Z,13.08
2018-09-15T06:04:19.788Z,13.08
2018-09-15T06:05:20.154Z,13.08
2018-09-15T06:06:20.097Z,13.09
2018-09-15T06:07:20.389Z,13.12
2018-09-15T06:08:19.540Z,13.11
2018-09-15T06:09:40.683Z,13.09
2018-09-15T06:10:40.851Z,13.11
2018-09-15T06:11:41.183Z,13.11
2018-09-15T06:12:41.219Z,13.08
2018-09-15T06:13:41.469Z,13.04
2018-09-15T06:14:40.872Z,13.01
2018-09-15T06:15:41.159Z,12.98
2018-09-15T06:16:46.349Z,12.97
2018-09-15T06:18:24.766Z,12.91
2018-09-15T06:19:24.259Z,12.90
2018-09-15T06:20:24.649Z,12.87
2018-09-15T06:21:24.087Z,12.86
2018-09-15T06:22:24.411Z,12.86
2018-09-15T06:23:24.273Z,12.86
2018-09-15T06:24:24.670Z,12.93
2018-09-15T06:25:26.105Z,13.11
2018-09-15T06:26:24.808Z,13.35
2018-09-15T06:27:24.421Z,13.50
2018-09-15T06:28:24.509Z,13.71
2018-09-15T06:29:24.600Z,13.92
2018-09-15T06:30:24.459Z,14.05
2018-09-15T06:31:24.386Z,14.25
2018-09-15T06:32:25.258Z,14.40
2018-09-15T06:33:25.727Z,14.63
2018-09-15T06:34:24.894Z,14.91
2018-09-15T06:35:24.667Z,15.17
2018-09-15T06:36:24.676Z,15.39
2018-09-15T06:37:24.703Z,15.54
2018-09-15T06:38:24.235Z,15.75
2018-09-15T06:39:25.426Z,15.91
2018-09-15T06:40:24.249Z,15.94
2018-09-15T06:41:25.335Z,16.13
2018-09-15T06:42:25.303Z,16.31
2018-09-15T06:43:27.715Z,16.38
2018-09-15T06:44:24.660Z,16.39
2018-09-15T06:46:08.049Z,16.49
2018-09-15T06:47:09.153Z,16.72
2018-09-15T06:48:08.143Z,16.94
2018-09-15T06:49:08.906Z,17.20
2018-09-15T06:50:08.791Z,17.42
2018-09-15T06:51:09.079Z,17.57
2018-09-15T06:52:09.360Z,17.60
2018-09-15T06:53:07.582Z,17.76
2018-09-15T06:54:08.200Z,17.83
2018-09-15T06:55:08.899Z,17.87
2018-09-15T06:56:30.381Z,17.97
2018-09-15T06:57:30.648Z,18.00
2018-09-15T06:58:31.128Z,17.89
2018-09-15T06:59:30.605Z,17.79
2018-09-15T07:00:54.328Z,17.98
2018-09-15T07:02:15.438Z,18.20
2018-09-15T07:03:38.758Z,18.33
2018-09-15T07:04:39.181Z,18.47
2018-09-15T07:05:38.543Z,18.56
2018-09-15T07:06:39.200Z,18.71
2018-09-15T07:07:38.769Z,18.86
2018-09-15T07:08:38.127Z,18.88
2018-09-15T07:09:39.162Z,19.02
2018-09-15T07:10:38.417Z,19.00
2018-09-15T07:11:38.816Z,19.07
2018-09-15T07:12:39.382Z,19.09
2018-09-15T07:13:38.627Z,19.24
2018-09-15T07:14:39.116Z,19.33
2018-09-15T07:15:38.655Z,19.64
2018-09-15T07:16:38.945Z,19.85
2018-09-15T07:17:38.455Z,20.09
2018-09-15T07:18:38.700Z,20.16
2018-09-15T07:19:59.153Z,20.18
2018-09-15T07:20:59.535Z,20.06
2018-09-15T07:21:59.750Z,19.94
2018-09-15T07:22:58.970Z,19.92
2018-09-15T07:24:00.120Z,20.11
2018-09-15T07:24:59.430Z,20.04
2018-09-15T07:25:59.861Z,19.91
2018-09-15T07:26:59.233Z,19.91
2018-09-15T07:27:59.937Z,19.74
2018-09-15T07:28:59.322Z,19.74
2018-09-15T07:29:59.683Z,19.73
2018-09-15T07:30:59.029Z,19.76
2018-09-15T07:32:20.774Z,19.79
2018-09-15T07:33:21.043Z,19.73
2018-09-15T07:34:22.113Z,19.74
2018-09-15T07:35:21.936Z,19.74
2018-09-15T07:36:21.196Z,19.88
2018-09-15T07:37:21.577Z,19.91
2018-09-15T07:38:21.019Z,20.06
2018-09-15T07:39:21.299Z,20.04
2018-09-15T07:40:21.567Z,19.85
2018-09-15T07:41:20.851Z,19.81
2018-09-15T07:42:21.156Z,19.91
2018-09-15T07:43:21.577Z,19.76
2018-09-15T07:44:21.650Z,19.66
2018-09-15T07:45:21.126Z,19.70
2018-09-15T07:46:21.612Z,19.73
2018-09-15T07:47:20.825Z,19.62
2018-09-15T07:48:21.316Z,19.48
2018-09-15T07:49:20.654Z,19.69
2018-09-15T07:50:20.820Z,19.89
2018-09-15T07:51:21.207Z,20.04
2018-09-15T07:52:22.107Z,20.14
2018-09-15T07:53:20.657Z,20.00
2018-09-15T07:55:05.892Z,19.79
2018-09-15T07:56:06.818Z,19.55
2018-09-15T07:57:27.666Z,19.26
2018-09-15T07:58:27.674Z,18.96
2018-09-15T07:59:27.845Z,18.71
2018-09-15T08:00:49.439Z,18.38
2018-09-15T08:01:49.827Z,18.23
2018-09-15T08:03:53.162Z,17.90
2018-09-15T08:04:53.617Z,17.83
2018-09-15T08:05:53.852Z,17.65
2018-09-15T08:06:53.449Z,17.42
2018-09-15T08:08:14.948Z,17.30
2018-09-15T08:09:15.103Z,17.26
2018-09-15T08:10:15.518Z,17.16
2018-09-15T08:11:15.812Z,17.11
2018-09-15T08:12:15.166Z,17.06
2018-09-15T08:13:36.869Z,17.01
2018-09-15T08:14:36.982Z,16.94
2018-09-15T08:15:37.324Z,16.91
2018-09-15T08:16:38.199Z,16.93
2018-09-15T08:17:37.605Z,16.97
2018-09-15T08:18:37.033Z,17.01
2018-09-15T08:19:37.447Z,16.99
2018-09-15T08:20:37.948Z,16.97
2018-09-15T08:21:37.250Z,16.93
2018-09-15T08:22:58.623Z,16.94
2018-09-15T08:23:58.968Z,16.97
2018-09-15T08:24:59.195Z,17.04
2018-09-15T08:25:59.586Z,17.11
2018-09-15T08:27:00.438Z,17.14
2018-09-15T08:27:59.909Z,17.14
2018-09-15T08:28:59.307Z,17.12
2018-09-15T08:29:58.732Z,17.20
2018-09-15T08:30:59.474Z,17.31
2018-09-15T08:32:20.563Z,17.49
2018-09-15T08:34:03.622Z,17.67
2018-09-15T08:35:04.041Z,17.70
2018-09-15T08:36:04.324Z,17.70
2018-09-15T08:37:03.692Z,17.71
2018-09-15T08:38:04.200Z,17.97
2018-09-15T08:39:04.510Z,18.58
2018-09-15T08:40:03.884Z,18.74
2018-09-15T08:41:04.303Z,18.96
2018-09-15T08:42:03.500Z,19.51
2018-09-15T08:43:04.004Z,20.16
2018-09-15T08:44:04.577Z,20.70
2018-09-15T08:45:04.186Z,20.96
2018-09-15T08:46:04.593Z,21.05
2018-09-15T08:47:04.550Z,21.02
2018-09-15T08:48:04.265Z,21.06
2018-09-15T08:49:24.677Z,21.18
2018-09-15T08:50:25.097Z,21.32
2018-09-15T08:51:46.406Z,21.69
2018-09-15T08:52:46.874Z,21.58
2018-09-15T08:53:47.225Z,21.66
2018-09-15T08:54:47.456Z,21.62
2018-09-15T08:55:46.867Z,21.48
2018-09-15T08:56:48.434Z,21.45
2018-09-15T08:57:46.716Z,21.39
2018-09-15T08:58:47.149Z,21.46
2018-09-15T08:59:46.749Z,21.55
2018-09-15T09:01:09.063Z,21.76
2018-09-15T09:02:09.475Z,22.28
2018-09-15T09:03:09.950Z,22.26
2018-09-15T09:04:09.359Z,22.51
2018-09-15T09:05:09.734Z,22.91
2018-09-15T09:06:09.210Z,23.21
2018-09-15T09:07:09.634Z,23.23
2018-09-15T09:08:09.281Z,23.23
2018-09-15T09:09:31.910Z,23.02
2018-09-15T09:10:31.326Z,22.65
2018-09-15T09:11:31.629Z,22.29
2018-09-15T09:12:32.340Z,21.72
2018-09-15T09:13:31.860Z,21.07
2018-09-15T09:14:53.773Z,20.69
2018-09-15T09:15:54.283Z,20.55
2018-09-15T09:16:53.525Z,20.39
2018-09-15T09:17:53.916Z,20.31
2018-09-15T09:18:54.257Z,20.37
2018-09-15T09:19:54.767Z,20.34
2018-09-15T09:20:54.330Z,20.26
2018-09-15T09:21:53.849Z,20.18
2018-09-15T09:22:54.982Z,20.11
2018-09-15T09:23:54.444Z,20.18
2018-09-15T09:24:53.944Z,20.16
2018-09-15T09:25:54.675Z,20.24
2018-09-15T09:26:54.297Z,20.29
2018-09-15T09:27:54.029Z,20.40
2018-09-15T09:28:54.488Z,20.63
2018-09-15T09:30:15.056Z,20.65
2018-09-15T09:31:15.724Z,20.69
2018-09-15T09:32:16.669Z,20.66
2018-09-15T09:33:15.312Z,20.77
2018-09-15T09:34:17.132Z,20.80
2018-09-15T09:35:36.309Z,20.75
2018-09-15T09:36:37.092Z,20.82
2018-09-15T09:37:36.579Z,21.03
2018-09-15T09:38:36.937Z,21.09
2018-09-15T09:39:37.668Z,21.15
2018-09-15T09:40:58.317Z,21.05
2018-09-15T09:41:58.920Z,20.97
2018-09-15T09:42:58.986Z,20.85
2018-09-15T09:43:59.330Z,20.63
2018-09-15T09:44:58.687Z,20.51
2018-09-15T09:45:58.924Z,20.52
2018-09-15T09:46:59.416Z,20.60
2018-09-15T09:47:58.787Z,20.74
2018-09-15T09:48:59.602Z,20.85
2018-09-15T09:49:58.842Z,20.81
2018-09-15T09:50:59.330Z,20.87
2018-09-15T09:52:42.377Z,20.84
2018-09-15T09:53:42.954Z,20.70
2018-09-15T09:54:42.582Z,20.66
2018-09-15T09:55:44.432Z,20.74
2018-09-15T09:56:43.277Z,20.80
2018-09-15T09:57:43.104Z,20.82
2018-09-15T09:58:43.527Z,20.85
2018-09-15T09:59:42.690Z,20.97
2018-09-15T10:00:42.169Z,21.03
2018-09-15T10:01:42.636Z,21.15
2018-09-15T10:03:05.097Z,20.96
2018-09-15T10:04:05.622Z,20.87
2018-09-15T10:05:05.427Z,20.78
2018-09-15T10:06:05.292Z,20.65
2018-09-15T10:07:05.850Z,20.40
2018-09-15T10:08:05.775Z,20.37
2018-09-15T10:09:05.357Z,20.37
2018-09-15T10:10:06.473Z,20.34
2018-09-15T10:11:04.931Z,20.28
2018-09-15T10:12:06.090Z,20.32
2018-09-15T10:13:06.451Z,20.44
2018-09-15T10:14:05.383Z,20.52
2018-09-15T10:15:04.898Z,20.52
2018-09-15T10:16:05.265Z,20.77
2018-09-15T10:17:06.540Z,20.81
2018-09-15T10:18:05.040Z,20.80
2018-09-15T10:19:27.645Z,20.78
2018-09-15T10:20:28.121Z,20.60
2018-09-15T10:21:27.771Z,20.37
2018-09-15T10:22:27.640Z,20.28
2018-09-15T10:23:28.352Z,20.29
2018-09-15T10:24:28.044Z,20.40
2018-09-15T10:25:48.874Z,20.43
2018-09-15T10:26:49.311Z,20.39
2018-09-15T10:28:31.192Z,20.28
2018-09-15T10:29:31.849Z,20.13
2018-09-15T10:30:31.281Z,20.25
2018-09-15T10:31:32.677Z,20.48
2018-09-15T10:32:31.157Z,21.09
2018-09-15T10:33:49.022Z,21.35
2018-09-15T10:34:49.406Z,21.15
2018-09-15T10:35:50.808Z,21.02
2018-09-15T10:36:49.400Z,21.32
2018-09-15T10:37:52.146Z,22.26
2018-09-15T10:38:49.460Z,22.85
2018-09-15T10:39:49.950Z,23.46
2018-09-15T10:41:10.681Z,24.50
2018-09-15T10:42:11.123Z,24.93
2018-09-15T10:43:11.663Z,24.73
2018-09-15T10:44:12.443Z,24.39
2018-09-15T10:45:32.164Z,24.60
2018-09-15T10:46:32.589Z,24.95
2018-09-15T10:47:54.328Z,26.10
2018-09-15T10:48:55.415Z,26.37
2018-09-15T10:49:54.946Z,26.18
2018-09-15T10:50:54.506Z,25.68
2018-09-15T10:51:55.550Z,25.28
2018-09-15T10:52:55.119Z,25.33
2018-09-15T10:53:54.879Z,25.72
2018-09-15T10:54:54.355Z,25.98
2018-09-15T10:55:54.811Z,26.21
2018-09-15T10:56:55.301Z,25.93
2018-09-15T10:58:15.560Z,25.90
2018-09-15T10:59:16.137Z,26.18
2018-09-15T11:00:16.360Z,25.96
2018-09-15T11:01:15.929Z,26.36
2018-09-15T11:02:37.735Z,27.08
2018-09-15T11:03:38.410Z,26.96
2018-09-15T11:04:38.796Z,27.47
2018-09-15T11:06:00.572Z,28.33
2018-09-15T11:07:00.073Z,28.85
2018-09-15T11:07:59.501Z,28.41
2018-09-15T11:09:22.457Z,27.70
2018-09-15T11:10:23.601Z,27.40
2018-09-15T11:11:23.242Z,27.02
2018-09-15T11:12:22.691Z,26.66
2018-09-15T11:13:37.042Z,26.40
2018-09-15T11:14:54.472Z,26.05
2018-09-15T11:15:47.850Z,25.88
2018-09-15T11:16:46.071Z,25.72
2018-09-15T11:17:44.839Z,25.18
2018-09-15T11:19:06.695Z,24.70
2018-09-15T11:20:07.311Z,24.55
2018-09-15T11:21:27.967Z,24.01
2018-09-15T11:22:28.303Z,23.73
2018-09-15T11:23:29.107Z,23.51
2018-09-15T11:24:28.756Z,23.37
2018-09-15T11:25:30.863Z,23.25
2018-09-15T11:26:31.719Z,23.05
2018-09-15T11:27:28.049Z,22.73
2018-09-15T11:28:40.033Z,22.47
2018-09-15T11:29:31.181Z,22.13
2018-09-15T11:30:29.157Z,21.87
2018-09-15T11:31:28.628Z,21.51
2018-09-15T11:32:28.358Z,21.15
2018-09-15T11:33:49.398Z,20.92
2018-09-15T11:34:50.449Z,20.78
2018-09-15T11:35:50.122Z,20.67
2018-09-15T11:36:50.196Z,20.51
2018-09-15T11:37:49.919Z,20.37
2018-09-15T11:38:49.447Z,20.28
2018-09-15T11:40:32.081Z,19.95
2018-09-15T11:41:32.911Z,19.76
2018-09-15T11:42:32.975Z,19.64
2018-09-15T11:43:32.394Z,19.54
2018-09-15T11:44:55.737Z,19.36
2018-09-15T11:45:57.195Z,19.24
2018-09-15T11:46:56.529Z,19.11
2018-09-15T11:47:56.142Z,18.99
2018-09-15T11:48:56.715Z,18.84
2018-09-15T11:49:56.142Z,18.71
2018-09-15T11:50:57.138Z,18.60
2018-09-15T11:51:56.705Z,18.49
2018-09-15T11:52:56.464Z,18.34
2018-09-15T11:53:57.307Z,18.18
2018-09-15T11:54:55.932Z,18.08
2018-09-15T11:55:56.227Z,17.98
2018-09-15T11:56:55.738Z,17.89
2018-09-15T11:58:18.587Z,17.85
2018-09-15T11:59:19.590Z,17.79
2018-09-15T12:00:19.971Z,17.72
2018-09-15T12:01:18.604Z,17.67
2018-09-15T12:02:42.328Z,17.72
2018-09-15T12:03:43.089Z,17.79
2018-09-15T12:04:42.885Z,17.85
2018-09-15T12:05:42.475Z,17.95
2018-09-15T12:06:42.726Z,18.05
2018-09-15T12:07:42.227Z,18.20
2018-09-15T12:08:42.675Z,18.37
2018-09-15T12:09:43.895Z,18.59
2018-09-15T12:10:42.628Z,18.77
2018-09-15T12:11:44.223Z,19.16
2018-09-15T12:12:42.742Z,20.03
2018-09-15T12:13:44.079Z,20.69
2018-09-15T12:14:42.842Z,21.35
2018-09-15T12:15:43.551Z,21.82
2018-09-15T12:17:06.143Z,22.87
2018-09-15T12:18:27.694Z,23.47
2018-09-15T12:19:52.722Z,24.42
2018-09-15T12:20:54.082Z,24.84
2018-09-15T12:21:53.554Z,25.13
2018-09-15T12:23:15.712Z,25.60
2018-09-15T12:24:16.435Z,26.06
2018-09-15T12:25:16.413Z,26.29
2018-09-15T12:26:16.032Z,26.58
2018-09-15T12:27:15.432Z,26.63
2018-09-15T12:28:37.517Z,26.85
2018-09-15T12:29:37.701Z,26.80
2018-09-15T12:30:39.526Z,26.74
2018-09-15T12:31:38.103Z,26.47
2018-09-15T12:32:37.539Z,26.07
2018-09-15T12:33:38.772Z,25.50
2018-09-15T12:34:39.422Z,25.14
2018-09-15T12:35:39.383Z,24.85
2018-09-15T12:36:38.670Z,24.58
2018-09-15T12:41:15.062Z,23.54
2018-09-15T12:42:12.395Z,23.25
2018-09-15T12:43:12.393Z,23.08
2018-09-15T12:44:11.818Z,22.81
2018-09-15T12:45:11.374Z,22.66
2018-09-15T12:46:13.488Z,22.50
2018-09-15T12:47:12.116Z,22.38
2018-09-15T12:48:12.893Z,22.17
2018-09-15T12:49:34.387Z,22.10
2018-09-15T12:50:33.741Z,21.95
2018-09-15T12:51:34.454Z,21.85
2018-09-15T12:52:35.249Z,21.89
2018-09-15T12:53:34.692Z,22.00
2018-09-15T12:54:34.113Z,22.11
2018-09-15T12:55:34.876Z,22.14
2018-09-15T12:56:34.946Z,22.04
2018-09-15T12:57:35.611Z,21.95
2018-09-15T12:58:55.631Z,21.69
2018-09-15T12:59:56.019Z,21.57
2018-09-15T13:00:55.578Z,21.46
2018-09-15T13:01:55.975Z,21.33
2018-09-15T13:02:55.504Z,21.27
2018-09-15T13:03:55.950Z,21.14
2018-09-15T13:04:55.219Z,21.07
2018-09-15T13:05:56.192Z,20.99
2018-09-15T13:06:56.325Z,20.96
2018-09-15T13:08:17.395Z,20.87
2018-09-15T13:09:17.917Z,20.87
2018-09-15T13:10:17.672Z,20.88
2018-09-15T13:11:18.216Z,20.85
2018-09-15T13:12:19.339Z,20.80
2018-09-15T13:13:17.835Z,20.72
2018-09-15T13:14:18.889Z,20.66
2018-09-15T13:15:18.627Z,20.65
2018-09-15T13:16:18.662Z,20.62
2018-09-15T13:17:20.990Z,20.58
2018-09-15T13:18:17.999Z,20.56
2018-09-15T13:19:19.497Z,20.62
2018-09-15T13:20:18.767Z,20.74
2018-09-15T13:21:18.650Z,20.85
2018-09-15T13:22:18.450Z,20.92
2018-09-15T13:23:18.204Z,20.92
2018-09-15T13:24:17.793Z,20.99
2018-09-15T13:25:19.083Z,21.46
2018-09-15T13:26:17.450Z,21.99
2018-09-15T13:27:17.863Z,22.11
2018-09-15T13:28:18.311Z,22.66
2018-09-15T13:29:18.426Z,23.06
2018-09-15T13:30:18.463Z,23.31
2018-09-15T13:31:17.959Z,23.68
2018-09-15T13:32:17.297Z,23.93
2018-09-15T13:33:18.059Z,24.16
2018-09-15T13:34:17.809Z,24.28
2018-09-15T13:35:18.184Z,24.43